DLH2FN EDDM-LROP
Flight info
| Callsign | DLH2FN |
|---|---|
| Flight time | N/A |
| Altitude | 35000 |
| Route | KIRDI3S/26L KIRDI DCT BUWOQ DCT OBFEZ DCT STEIN DCT TEGRI DCT LAMIT DCT TOSVI |
| Aircraft | A21N/M-SDE3FGHIRWY/LB1 |
Departure
| Time | 2026-05-05 19:21 |
|---|---|
| Airport | Munich Airport (EDDM) |
Arrival
| Time | N/A |
|---|---|
| Airport | Bucharest Henri Coandă International Airport (LROP) |
| Time | Latitude | Longitude | Altitude | Speed | Heading |
|---|---|---|---|---|---|
| 2026-05-05 18:49 | 48.35424 | 11.80021 | 1472 ft | 0 kts | 263° |
| 2026-05-05 19:10 | 48.35424 | 11.80023 | 1472 ft | 1 kts | 263° |
| 2026-05-05 19:10 | 48.35425 | 11.80044 | 1472 ft | 2 kts | 263° |
| 2026-05-05 19:10 | 48.35427 | 11.80067 | 1472 ft | 2 kts | 263° |
| 2026-05-05 19:10 | 48.35429 | 11.80089 | 1472 ft | 2 kts | 263° |
| 2026-05-05 19:11 | 48.35430 | 11.80108 | 1472 ft | 0 kts | 263° |
| 2026-05-05 19:11 | 48.35432 | 11.80126 | 1472 ft | 2 kts | 245° |
| 2026-05-05 19:11 | 48.35441 | 11.80144 | 1472 ft | 2 kts | 223° |
| 2026-05-05 19:11 | 48.35453 | 11.80157 | 1472 ft | 2 kts | 199° |
| 2026-05-05 19:12 | 48.35468 | 11.80161 | 1472 ft | 1 kts | 177° |
| 2026-05-05 19:12 | 48.35474 | 11.80159 | 1472 ft | 1 kts | 171° |
| 2026-05-05 19:12 | 48.35477 | 11.80159 | 1472 ft | 0 kts | 172° |
| 2026-05-05 19:14 | 48.35476 | 11.80159 | 1472 ft | 0 kts | 172° |
| 2026-05-05 19:15 | 48.35466 | 11.80161 | 1472 ft | 3 kts | 174° |
| 2026-05-05 19:15 | 48.35415 | 11.80172 | 1472 ft | 10 kts | 162° |
| 2026-05-05 19:15 | 48.35327 | 11.80197 | 1472 ft | 13 kts | 174° |
| 2026-05-05 19:15 | 48.35234 | 11.80212 | 1473 ft | 13 kts | 173° |
| 2026-05-05 19:16 | 48.35144 | 11.80227 | 1473 ft | 9 kts | 176° |
| 2026-05-05 19:16 | 48.35109 | 11.80162 | 1473 ft | 9 kts | 253° |
| 2026-05-05 19:16 | 48.35099 | 11.80065 | 1473 ft | 9 kts | 263° |
| 2026-05-05 19:16 | 48.35090 | 11.79953 | 1474 ft | 12 kts | 263° |
| 2026-05-05 19:17 | 48.35081 | 11.79828 | 1474 ft | 12 kts | 263° |
| 2026-05-05 19:17 | 48.35069 | 11.79706 | 1474 ft | 11 kts | 248° |
| 2026-05-05 19:17 | 48.35003 | 11.79667 | 1475 ft | 11 kts | 176° |
| 2026-05-05 19:17 | 48.34924 | 11.79681 | 1475 ft | 11 kts | 174° |
| 2026-05-05 19:18 | 48.34842 | 11.79694 | 1475 ft | 11 kts | 173° |
| 2026-05-05 19:18 | 48.34759 | 11.79710 | 1475 ft | 12 kts | 173° |
| 2026-05-05 19:18 | 48.34686 | 11.79666 | 1476 ft | 12 kts | 231° |
| 2026-05-05 19:18 | 48.34636 | 11.79566 | 1476 ft | 11 kts | 234° |
| 2026-05-05 19:19 | 48.34586 | 11.79467 | 1476 ft | 11 kts | 233° |
| 2026-05-05 19:19 | 48.34537 | 11.79370 | 1477 ft | 11 kts | 233° |
| 2026-05-05 19:19 | 48.34491 | 11.79273 | 1477 ft | 11 kts | 236° |
| 2026-05-05 19:19 | 48.34439 | 11.79169 | 1478 ft | 12 kts | 233° |
| 2026-05-05 19:20 | 48.34388 | 11.79043 | 1479 ft | 19 kts | 246° |
| 2026-05-05 19:20 | 48.34335 | 11.78589 | 1481 ft | 79 kts | 264° |
| 2026-05-05 19:20 | 48.34246 | 11.77422 | 1485 ft | 142 kts | 263° |
| 2026-05-05 19:20 | 48.34106 | 11.75696 | 1624 ft | 181 kts | 263° |
| 2026-05-05 19:21 | 48.33963 | 11.73805 | 2273 ft | 184 kts | 265° |
| 2026-05-05 19:21 | 48.33575 | 11.72078 | 3096 ft | 185 kts | 235° |
| 2026-05-05 19:21 | 48.32451 | 11.71004 | 3566 ft | 203 kts | 202° |
| 2026-05-05 19:21 | 48.30989 | 11.70821 | 3938 ft | 221 kts | 186° |
| 2026-05-05 19:22 | 48.29426 | 11.70829 | 4378 ft | 233 kts | 180° |
| 2026-05-05 19:22 | 48.27810 | 11.71534 | 4835 ft | 252 kts | 154° |
| 2026-05-05 19:22 | 48.26336 | 11.73099 | 5293 ft | 268 kts | 148° |
| 2026-05-05 19:22 | 48.24774 | 11.74758 | 5610 ft | 283 kts | 148° |
| 2026-05-05 19:23 | 48.23152 | 11.76482 | 5923 ft | 288 kts | 148° |
| 2026-05-05 19:23 | 48.21499 | 11.78202 | 6167 ft | 290 kts | 149° |
| 2026-05-05 19:23 | 48.19835 | 11.79918 | 6502 ft | 296 kts | 144° |
| 2026-05-05 19:23 | 48.18556 | 11.82331 | 7214 ft | 302 kts | 115° |
| 2026-05-05 19:24 | 48.18174 | 11.85372 | 8030 ft | 301 kts | 86° |
| 2026-05-05 19:24 | 48.18462 | 11.88439 | 8747 ft | 302 kts | 83° |
| 2026-05-05 19:24 | 48.18617 | 11.90107 | 9099 ft | 303 kts | 84° |